sensor_id;sensor_type;location;lat;lon;timestamp;pressure;altitude;pressure_sealevel;temperature;humidity
79589;BME280;69067;51.930;4.492;2023-05-10T00:01:32;100793.78;;;20.64;55.32
79589;BME280;69067;51.930;4.492;2023-05-10T00:03:58;100790.22;;;20.64;55.44
79589;BME280;69067;51.930;4.492;2023-05-10T00:06:23;100790.59;;;20.61;55.13
79589;BME280;69067;51.930;4.492;2023-05-10T00:08:49;100795.28;;;20.67;55.60
79589;BME280;69067;51.930;4.492;2023-05-10T00:11:15;100781.28;;;20.63;55.08
79589;BME280;69067;51.930;4.492;2023-05-10T00:13:41;100795.28;;;20.67;54.38
79589;BME280;69067;51.930;4.492;2023-05-10T00:16:06;100796.13;;;20.67;54.80
79589;BME280;69067;51.930;4.492;2023-05-10T00:18:32;100783.97;;;20.63;54.70
79589;BME280;69067;51.930;4.492;2023-05-10T00:20:58;100786.31;;;20.66;55.32
79589;BME280;69067;51.930;4.492;2023-05-10T00:23:24;100791.06;;;20.64;55.25
79589;BME280;69067;51.930;4.492;2023-05-10T00:25:49;100783.53;;;20.60;55.25
79589;BME280;69067;51.930;4.492;2023-05-10T00:28:15;100797.31;;;20.65;54.93
79589;BME280;69067;51.930;4.492;2023-05-10T00:30:41;100786.69;;;20.63;55.28
79589;BME280;69067;51.930;4.492;2023-05-10T00:33:07;100772.25;;;20.56;54.69
79589;BME280;69067;51.930;4.492;2023-05-10T00:35:32;100779.59;;;20.62;54.91
79589;BME280;69067;51.930;4.492;2023-05-10T00:37:59;100786.50;;;20.65;54.63
79589;BME280;69067;51.930;4.492;2023-05-10T00:40:25;100778.75;;;20.62;55.12
79589;BME280;69067;51.930;4.492;2023-05-10T00:42:51;100783.63;;;20.66;55.62
79589;BME280;69067;51.930;4.492;2023-05-10T00:45:16;100783.31;;;20.61;54.77
79589;BME280;69067;51.930;4.492;2023-05-10T00:47:42;100774.09;;;20.56;54.95
79589;BME280;69067;51.930;4.492;2023-05-10T00:50:09;100789.56;;;20.62;55.21
79589;BME280;69067;51.930;4.492;2023-05-10T00:52:35;100783.31;;;20.61;54.99
79589;BME280;69067;51.930;4.492;2023-05-10T00:55:01;100786.03;;;20.61;54.65
79589;BME280;69067;51.930;4.492;2023-05-10T00:57:28;100786.88;;;20.62;55.17
79589;BME280;69067;51.930;4.492;2023-05-10T00:59:54;100795.81;;;20.62;55.43
79589;BME280;69067;51.930;4.492;2023-05-10T01:02:20;100797.25;;;20.58;55.36
79589;BME280;69067;51.930;4.492;2023-05-10T01:04:46;100804.34;;;20.59;55.25
79589;BME280;69067;51.930;4.492;2023-05-10T01:07:12;100813.38;;;20.66;54.95
79589;BME280;69067;51.930;4.492;2023-05-10T01:09:38;100809.34;;;20.62;55.45
79589;BME280;69067;51.930;4.492;2023-05-10T01:12:04;100810.66;;;20.66;54.59
79589;BME280;69067;51.930;4.492;2023-05-10T01:14:33;100807.31;;;20.64;55.10
79589;BME280;69067;51.930;4.492;2023-05-10T01:17:01;100806.38;;;20.57;55.32
79589;BME280;69067;51.930;4.492;2023-05-10T01:19:30;100806.56;;;20.56;55.01
79589;BME280;69067;51.930;4.492;2023-05-10T01:25:38;100811.03;;;20.63;55.28
79589;BME280;69067;51.930;4.492;2023-05-10T01:28:37;100820.66;;;20.66;54.68
79589;BME280;69067;51.930;4.492;2023-05-10T01:34:20;100818.13;;;20.64;55.11
79589;BME280;69067;51.930;4.492;2023-05-10T01:37:09;100827.25;;;20.63;54.98
79589;BME280;69067;51.930;4.492;2023-05-10T01:39:45;100831.66;;;20.64;55.32
79589;BME280;69067;51.930;4.492;2023-05-10T01:42:21;100831.00;;;20.62;55.79
79589;BME280;69067;51.930;4.492;2023-05-10T01:44:58;100834.19;;;20.66;55.72
79589;BME280;69067;51.930;4.492;2023-05-10T01:47:38;100828.09;;;20.64;54.64
79589;BME280;69067;51.930;4.492;2023-05-10T01:50:15;100836.88;;;20.66;55.13
79589;BME280;69067;51.930;4.492;2023-05-10T01:52:50;100839.13;;;20.62;55.28
79589;BME280;69067;51.930;4.492;2023-05-10T01:55:23;100841.44;;;20.65;55.06
79589;BME280;69067;51.930;4.492;2023-05-10T01:58:05;100843.31;;;20.65;55.87
79589;BME280;69067;51.930;4.492;2023-05-10T02:00:34;100840.63;;;20.65;55.31
79589;BME280;69067;51.930;4.492;2023-05-10T02:03:06;100836.22;;;20.64;55.45
79589;BME280;69067;51.930;4.492;2023-05-10T02:05:35;100834.34;;;20.64;55.30
79589;BME280;69067;51.930;4.492;2023-05-10T02:08:06;100841.81;;;20.62;54.87
79589;BME280;69067;51.930;4.492;2023-05-10T02:10:34;100840.97;;;20.62;55.21
79589;BME280;69067;51.930;4.492;2023-05-10T02:13:02;100837.63;;;20.60;55.18
79589;BME280;69067;51.930;4.492;2023-05-10T02:15:29;100838.84;;;20.57;55.96
79589;BME280;69067;51.930;4.492;2023-05-10T02:17:59;100831.38;;;20.59;55.20
79589;BME280;69067;51.930;4.492;2023-05-10T02:20:26;100828.88;;;20.58;55.34
79589;BME280;69067;51.930;4.492;2023-05-10T02:22:55;100842.84;;;20.61;55.61
79589;BME280;69067;51.930;4.492;2023-05-10T02:25:23;100826.75;;;20.53;55.54
79589;BME280;69067;51.930;4.492;2023-05-10T02:27:54;100839.69;;;20.58;56.05
79589;BME280;69067;51.930;4.492;2023-05-10T02:30:22;100833.44;;;20.57;55.37
79589;BME280;69067;51.930;4.492;2023-05-10T02:32:50;100840.25;;;20.53;55.34
79589;BME280;69067;51.930;4.492;2023-05-10T02:35:18;100855.06;;;20.57;55.59
79589;BME280;69067;51.930;4.492;2023-05-10T02:37:46;100852.47;;;20.64;55.52
79589;BME280;69067;51.930;4.492;2023-05-10T02:40:16;100858.03;;;20.62;56.17
79589;BME280;69067;51.930;4.492;2023-05-10T02:42:45;100856.75;;;20.58;55.48
79589;BME280;69067;51.930;4.492;2023-05-10T02:45:29;100853.88;;;20.60;55.77
79589;BME280;69067;51.930;4.492;2023-05-10T02:47:56;100854.81;;;20.52;55.98
79589;BME280;69067;51.930;4.492;2023-05-10T02:50:26;100860.13;;;20.60;56.29
79589;BME280;69067;51.930;4.492;2023-05-10T02:53:00;100856.75;;;20.58;56.42
79589;BME280;69067;51.930;4.492;2023-05-10T02:55:32;100851.34;;;20.58;56.04
79589;BME280;69067;51.930;4.492;2023-05-10T02:58:03;100849.22;;;20.54;56.14
79589;BME280;69067;51.930;4.492;2023-05-10T03:00:29;100865.16;;;20.63;56.08
79589;BME280;69067;51.930;4.492;2023-05-10T03:02:55;100860.13;;;20.60;56.22
79589;BME280;69067;51.930;4.492;2023-05-10T03:05:21;100868.69;;;20.64;56.30
79589;BME280;69067;51.930;4.492;2023-05-10T03:07:47;100854.63;;;20.54;55.69
79589;BME280;69067;51.930;4.492;2023-05-10T03:10:13;100857.97;;;20.56;56.35
79589;BME280;69067;51.930;4.492;2023-05-10T03:18:50;100871.56;;;20.62;56.37
79589;BME280;69067;51.930;4.492;2023-05-10T03:21:22;100871.75;;;20.61;56.11
79589;BME280;69067;51.930;4.492;2023-05-10T03:23:59;100874.94;;;20.64;55.95
79589;BME280;69067;51.930;4.492;2023-05-10T03:26:28;100870.09;;;20.60;55.59
79589;BME280;69067;51.930;4.492;2023-05-10T03:28:57;100872.59;;;20.61;55.83
79589;BME280;69067;51.930;4.492;2023-05-10T03:31:25;100874.47;;;20.61;55.74
79589;BME280;69067;51.930;4.492;2023-05-10T03:33:52;100872.41;;;20.63;56.11
79589;BME280;69067;51.930;4.492;2023-05-10T03:36:19;100877.16;;;20.61;56.43
79589;BME280;69067;51.930;4.492;2023-05-10T03:38:45;100875.31;;;20.61;56.76
79589;BME280;69067;51.930;4.492;2023-05-10T03:41:11;100878.00;;;20.61;55.96
79589;BME280;69067;51.930;4.492;2023-05-10T03:43:37;100871.97;;;20.59;55.12
79589;BME280;69067;51.930;4.492;2023-05-10T03:46:03;100879.25;;;20.59;56.13
79589;BME280;69067;51.930;4.492;2023-05-10T03:48:29;100879.88;;;20.61;55.93
79589;BME280;69067;51.930;4.492;2023-05-10T03:50:55;100863.84;;;20.59;56.20
79589;BME280;69067;51.930;4.492;2023-05-10T03:53:21;100875.31;;;20.61;56.09
79589;BME280;69067;51.930;4.492;2023-05-10T03:55:48;100877.16;;;20.61;56.32
79589;BME280;69067;51.930;4.492;2023-05-10T03:58:14;100882.78;;;20.59;55.63
79589;BME280;69067;51.930;4.492;2023-05-10T04:00:41;100889.03;;;20.60;55.97
79589;BME280;69067;51.930;4.492;2023-05-10T04:03:09;100892.38;;;20.62;55.80
79589;BME280;69067;51.930;4.492;2023-05-10T04:05:36;100883.81;;;20.58;56.05
79589;BME280;69067;51.930;4.492;2023-05-10T04:08:02;100888.19;;;20.59;55.13
79589;BME280;69067;51.930;4.492;2023-05-10T04:10:28;100893.41;;;20.61;55.70
79589;BME280;69067;51.930;4.492;2023-05-10T04:12:54;100891.53;;;20.61;56.11
79589;BME280;69067;51.930;4.492;2023-05-10T04:15:19;100883.81;;;20.58;55.33
79589;BME280;69067;51.930;4.492;2023-05-10T04:17:45;100897.16;;;20.60;55.92
79589;BME280;69067;51.930;4.492;2023-05-10T04:20:12;100896.50;;;20.58;55.83
79589;BME280;69067;51.930;4.492;2023-05-10T04:22:38;100908.63;;;20.62;55.51
79589;BME280;69067;51.930;4.492;2023-05-10T04:25:05;100901.72;;;20.59;55.90
79589;BME280;69067;51.930;4.492;2023-05-10T04:27:31;100900.88;;;20.59;55.60
79589;BME280;69067;51.930;4.492;2023-05-10T04:29:57;100895.47;;;20.59;55.82
79589;BME280;69067;51.930;4.492;2023-05-10T04:32:24;100891.94;;;20.58;55.78
79589;BME280;69067;51.930;4.492;2023-05-10T04:34:49;100894.81;;;20.57;56.46
79589;BME280;69067;51.930;4.492;2023-05-10T04:37:17;100899.19;;;20.58;56.08
79589;BME280;69067;51.930;4.492;2023-05-10T04:39:43;100909.00;;;20.59;55.33
79589;BME280;69067;51.930;4.492;2023-05-10T04:42:09;100905.47;;;20.58;55.63
79589;BME280;69067;51.930;4.492;2023-05-10T04:44:35;100904.63;;;20.58;56.31
79589;BME280;69067;51.930;4.492;2023-05-10T04:47:01;100910.03;;;20.58;56.66
79589;BME280;69067;51.930;4.492;2023-05-10T04:49:29;100903.94;;;20.56;56.24
79589;BME280;69067;51.930;4.492;2023-05-10T04:51:55;100911.88;;;20.57;56.39
79589;BME280;69067;51.930;4.492;2023-05-10T04:54:21;100920.84;;;20.58;56.11
79589;BME280;69067;51.930;4.492;2023-05-10T04:56:47;100913.31;;;20.53;56.64
79589;BME280;69067;51.930;4.492;2023-05-10T04:59:13;100923.56;;;20.58;55.53
79589;BME280;69067;51.930;4.492;2023-05-10T05:01:39;100924.47;;;20.50;56.43
79589;BME280;69067;51.930;4.492;2023-05-10T05:04:05;100924.56;;;20.57;56.34
79589;BME280;69067;51.930;4.492;2023-05-10T05:06:30;100937.91;;;20.58;56.17
79589;BME280;69067;51.930;4.492;2023-05-10T05:08:56;100934.19;;;20.59;56.51
79589;BME280;69067;51.930;4.492;2023-05-10T05:11:22;100941.66;;;20.57;56.17
79589;BME280;69067;51.930;4.492;2023-05-10T05:13:48;100940.97;;;20.55;56.07
79589;BME280;69067;51.930;4.492;2023-05-10T05:16:13;100938.66;;;20.52;56.08
79589;BME280;69067;51.930;4.492;2023-05-10T05:18:39;100935.97;;;20.52;56.61
79589;BME280;69067;51.930;4.492;2023-05-10T05:21:15;100949.59;;;20.59;56.49
79589;BME280;69067;51.930;4.492;2023-05-10T05:23:42;100949.94;;;20.56;56.46
79589;BME280;69067;51.930;4.492;2023-05-10T05:26:08;100947.97;;;20.50;56.79
79589;BME280;69067;51.930;4.492;2023-05-10T05:28:35;100960.59;;;20.57;56.33
79589;BME280;69067;51.930;4.492;2023-05-10T05:31:06;100945.47;;;20.48;57.07
79589;BME280;69067;51.930;4.492;2023-05-10T05:33:35;100947.31;;;20.48;57.42
79589;BME280;69067;51.930;4.492;2023-05-10T05:36:03;100947.53;;;20.46;57.16
79589;BME280;69067;51.930;4.492;2023-05-10T05:38:29;100957.22;;;20.55;56.38
79589;BME280;69067;51.930;4.492;2023-05-10T05:40:55;100958.22;;;20.54;57.10
79589;BME280;69067;51.930;4.492;2023-05-10T05:43:21;100959.47;;;20.52;57.05
79589;BME280;69067;51.930;4.492;2023-05-10T05:45:47;100955.75;;;20.53;56.60
79589;BME280;69067;51.930;4.492;2023-05-10T05:48:13;100950.03;;;20.48;56.46
79589;BME280;69067;51.930;4.492;2023-05-10T05:50:39;100974.13;;;20.57;57.07
79589;BME280;69067;51.930;4.492;2023-05-10T05:53:05;100968.69;;;20.57;57.11
79589;BME280;69067;51.930;4.492;2023-05-10T05:55:30;100953.78;;;20.47;56.72
79589;BME280;69067;51.930;4.492;2023-05-10T05:57:58;100962.00;;;20.53;57.09
79589;BME280;69067;51.930;4.492;2023-05-10T06:00:24;100961.50;;;20.50;56.78
79589;BME280;69067;51.930;4.492;2023-05-10T06:02:49;100961.50;;;20.50;56.40
79589;BME280;69067;51.930;4.492;2023-05-10T06:05:15;100975.13;;;20.56;56.04
79589;BME280;69067;51.930;4.492;2023-05-10T06:07:41;100979.69;;;20.56;56.50
79589;BME280;69067;51.930;4.492;2023-05-10T06:10:10;100964.59;;;20.47;55.92
79589;BME280;69067;51.930;4.492;2023-05-10T06:12:35;100981.38;;;20.57;55.87
79589;BME280;69067;51.930;4.492;2023-05-10T06:15:02;100975.53;;;20.53;55.86
79589;BME280;69067;51.930;4.492;2023-05-10T06:17:29;100971.88;;;20.46;56.79
79589;BME280;69067;51.930;4.492;2023-05-10T06:19:55;100984.94;;;20.57;56.60
79589;BME280;69067;51.930;4.492;2023-05-10T06:22:21;100979.41;;;20.51;56.77
79589;BME280;69067;51.930;4.492;2023-05-10T06:24:48;100985.28;;;20.54;57.03
79589;BME280;69067;51.930;4.492;2023-05-10T06:27:14;100978.84;;;20.55;56.66
79589;BME280;69067;51.930;4.492;2023-05-10T06:29:40;100972.81;;;20.53;56.73
79589;BME280;69067;51.930;4.492;2023-05-10T06:32:06;100976.06;;;20.49;56.59
79589;BME280;69067;51.930;4.492;2023-05-10T06:34:32;100986.34;;;20.53;56.82
79589;BME280;69067;51.930;4.492;2023-05-10T06:36:58;100972.88;;;20.45;55.89
79589;BME280;69067;51.930;4.492;2023-05-10T06:39:24;100993.41;;;20.54;56.37
79589;BME280;69067;51.930;4.492;2023-05-10T06:41:49;100989.41;;;20.50;56.04
79589;BME280;69067;51.930;4.492;2023-05-10T06:44:15;100985.19;;;20.48;56.99
79589;BME280;69067;51.930;4.492;2023-05-10T06:46:41;100991.53;;;20.55;56.52
79589;BME280;69067;51.930;4.492;2023-05-10T06:49:07;100999.88;;;20.53;57.08
79589;BME280;69067;51.930;4.492;2023-05-10T06:51:33;100985.19;;;20.48;56.04
79589;BME280;69067;51.930;4.492;2023-05-10T06:53:59;100995.66;;;20.51;56.67
79589;BME280;69067;51.930;4.492;2023-05-10T06:56:25;100986.41;;;20.45;56.77
79589;BME280;69067;51.930;4.492;2023-05-10T06:58:51;100989.13;;;20.45;56.98
79589;BME280;69067;51.930;4.492;2023-05-10T07:01:17;100987.03;;;20.47;56.48
79589;BME280;69067;51.930;4.492;2023-05-10T07:03:42;100992.28;;;20.49;55.88
79589;BME280;69067;51.930;4.492;2023-05-10T07:06:08;100995.47;;;20.52;56.42
79589;BME280;69067;51.930;4.492;2023-05-10T07:08:37;100997.22;;;20.45;56.20
79589;BME280;69067;51.930;4.492;2023-05-10T07:11:04;100995.16;;;20.47;55.95
79589;BME280;69067;51.930;4.492;2023-05-10T07:13:33;101002.47;;;20.47;56.70
79589;BME280;69067;51.930;4.492;2023-05-10T07:16:00;101016.09;;;20.53;55.78
79589;BME280;69067;51.930;4.492;2023-05-10T07:18:28;100988.81;;;20.40;56.29
79589;BME280;69067;51.930;4.492;2023-05-10T07:20:54;101014.22;;;20.54;55.73
79589;BME280;69067;51.930;4.492;2023-05-10T07:23:20;101008.69;;;20.47;56.32
79589;BME280;69067;51.930;4.492;2023-05-10T07:25:50;101026.91;;;20.53;55.27
79589;BME280;69067;51.930;4.492;2023-05-10T07:28:17;101024.22;;;20.53;55.90
79589;BME280;69067;51.930;4.492;2023-05-10T07:30:44;101010.09;;;20.43;55.83
79589;BME280;69067;51.930;4.492;2023-05-10T07:33:12;101019.31;;;20.49;55.80
79589;BME280;69067;51.930;4.492;2023-05-10T07:35:38;101018.50;;;20.48;55.94
79589;BME280;69067;51.930;4.492;2023-05-10T07:38:04;101008.41;;;20.42;55.58
79589;BME280;69067;51.930;4.492;2023-05-10T07:40:31;101022.88;;;20.49;55.58
79589;BME280;69067;51.930;4.492;2023-05-10T07:42:57;101018.03;;;20.44;55.56
79589;BME280;69067;51.930;4.492;2023-05-10T07:45:23;101018.69;;;20.47;55.82
79589;BME280;69067;51.930;4.492;2023-05-10T07:47:49;101020.19;;;20.49;55.95
79589;BME280;69067;51.930;4.492;2023-05-10T07:50:15;101017.84;;;20.46;55.88
79589;BME280;69067;51.930;4.492;2023-05-10T07:52:41;101011.78;;;20.44;55.59
79589;BME280;69067;51.930;4.492;2023-05-10T07:55:07;101025.22;;;20.52;55.56
79589;BME280;69067;51.930;4.492;2023-05-10T07:57:34;101009.25;;;20.42;55.54
79589;BME280;69067;51.930;4.492;2023-05-10T08:00:00;101019.72;;;20.46;55.64
79589;BME280;69067;51.930;4.492;2023-05-10T08:02:26;101031.84;;;20.50;55.80
79589;BME280;69067;51.930;4.492;2023-05-10T08:04:52;101034.19;;;20.53;55.26
79589;BME280;69067;51.930;4.492;2023-05-10T08:07:18;101025.97;;;20.46;55.86
79589;BME280;69067;51.930;4.492;2023-05-10T08:09:44;101013.34;;;20.38;55.15
79589;BME280;69067;51.930;4.492;2023-05-10T08:12:09;101029.69;;;20.45;55.68
79589;BME280;69067;51.930;4.492;2023-05-10T08:14:35;101041.47;;;20.52;55.34
79589;BME280;69067;51.930;4.492;2023-05-10T08:17:04;101031.38;;;20.46;55.16
79589;BME280;69067;51.930;4.492;2023-05-10T08:19:30;101039.50;;;20.46;54.89
79589;BME280;69067;51.930;4.492;2023-05-10T08:21:57;101053.97;;;20.53;55.80
79589;BME280;69067;51.930;4.492;2023-05-10T08:24:23;101036.13;;;20.44;55.53
79589;BME280;69067;51.930;4.492;2023-05-10T08:26:49;101043.22;;;20.45;55.21
79589;BME280;69067;51.930;4.492;2023-05-10T08:29:15;101048.91;;;20.50;55.15
79589;BME280;69067;51.930;4.492;2023-05-10T08:31:41;101044.22;;;20.44;55.54
79589;BME280;69067;51.930;4.492;2023-05-10T08:34:07;101056.00;;;20.51;55.15
79589;BME280;69067;51.930;4.492;2023-05-10T08:36:33;101037.97;;;20.43;55.26
79589;BME280;69067;51.930;4.492;2023-05-10T08:38:59;101038.34;;;20.40;55.22
79589;BME280;69067;51.930;4.492;2023-05-10T08:41:24;101047.28;;;20.41;55.12
79589;BME280;69067;51.930;4.492;2023-05-10T08:43:53;101051.69;;;20.42;55.19
79589;BME280;69067;51.930;4.492;2023-05-10T08:46:21;101051.69;;;20.42;55.04
79589;BME280;69067;51.930;4.492;2023-05-10T08:48:50;101068.03;;;20.49;55.44
79589;BME280;69067;51.930;4.492;2023-05-10T08:51:23;101068.69;;;20.51;55.30
79589;BME280;69067;51.930;4.492;2023-05-10T08:53:53;101069.25;;;20.46;54.80
79589;BME280;69067;51.930;4.492;2023-05-10T08:56:19;101070.44;;;20.43;55.04
79589;BME280;69067;51.930;4.492;2023-05-10T08:58:45;101082.56;;;20.48;55.09
79589;BME280;69067;51.930;4.492;2023-05-10T09:01:13;101092.00;;;20.52;55.50
79589;BME280;69067;51.930;4.492;2023-05-10T09:03:41;101076.03;;;20.42;55.14
79589;BME280;69067;51.930;4.492;2023-05-10T09:06:07;101091.19;;;20.51;54.85
79589;BME280;69067;51.930;4.492;2023-05-10T09:08:33;101092.84;;;20.52;54.83
79589;BME280;69067;51.930;4.492;2023-05-10T09:11:00;101092.53;;;20.47;55.56
79589;BME280;69067;51.930;4.492;2023-05-10T09:13:28;101099.97;;;20.53;55.35
79589;BME280;69067;51.930;4.492;2023-05-10T09:15:54;101092.53;;;20.47;55.06
79589;BME280;69067;51.930;4.492;2023-05-10T09:18:20;101106.38;;;20.52;55.22
79589;BME280;69067;51.930;4.492;2023-05-10T09:20:45;101100.88;;;20.46;55.13
79589;BME280;69067;51.930;4.492;2023-05-10T09:23:11;101106.75;;;20.49;55.48
79589;BME280;69067;51.930;4.492;2023-05-10T09:25:37;101099.47;;;20.50;54.74
79589;BME280;69067;51.930;4.492;2023-05-10T09:28:06;101090.88;;;20.46;54.72
79589;BME280;69067;51.930;4.492;2023-05-10T09:30:33;101099.16;;;20.44;55.11
79589;BME280;69067;51.930;4.492;2023-05-10T09:32:59;101102.16;;;20.50;54.61
79589;BME280;69067;51.930;4.492;2023-05-10T09:35:28;101090.38;;;20.42;54.97
79589;BME280;69067;51.930;4.492;2023-05-10T09:38:02;101116.19;;;20.53;55.47
79589;BME280;69067;51.930;4.492;2023-05-10T09:40:30;101118.91;;;20.53;54.85
79589;BME280;69067;51.930;4.492;2023-05-10T09:45:26;101113.84;;;20.50;55.27
79589;BME280;69067;51.930;4.492;2023-05-10T09:47:54;101128.03;;;20.52;55.18
79589;BME280;69067;51.930;4.492;2023-05-10T09:50:21;101113.72;;;20.43;54.48
79589;BME280;69067;51.930;4.492;2023-05-10T09:52:59;101135.97;;;20.54;55.52
79589;BME280;69067;51.930;4.492;2023-05-10T09:58:05;101130.72;;;20.52;54.40
79589;BME280;69067;51.930;4.492;2023-05-10T10:00:44;101122.28;;;20.47;55.32
79589;BME280;69067;51.930;4.492;2023-05-10T10:03:18;101135.75;;;20.55;55.10
79589;BME280;69067;51.930;4.492;2023-05-10T10:05:46;101131.75;;;20.51;54.89
79589;BME280;69067;51.930;4.492;2023-05-10T10:08:14;101132.41;;;20.53;54.86
79589;BME280;69067;51.930;4.492;2023-05-10T10:10:40;101130.91;;;20.51;55.57
79589;BME280;69067;51.930;4.492;2023-05-10T10:13:07;101128.75;;;20.46;55.06
79589;BME280;69067;51.930;4.492;2023-05-10T10:15:34;101136.50;;;20.49;55.42
79589;BME280;69067;51.930;4.492;2023-05-10T10:18:00;101135.81;;;20.47;55.34
79589;BME280;69067;51.930;4.492;2023-05-10T10:20:27;101135.66;;;20.49;54.62
79589;BME280;69067;51.930;4.492;2023-05-10T10:22:53;101151.16;;;20.55;55.20
79589;BME280;69067;51.930;4.492;2023-05-10T10:25:20;101152.00;;;20.55;54.95
79589;BME280;69067;51.930;4.492;2023-05-10T10:31:16;101148.81;;;20.52;55.16
79589;BME280;69067;51.930;4.492;2023-05-10T10:34:03;101151.81;;;20.57;54.89
79589;BME280;69067;51.930;4.492;2023-05-10T10:36:39;101140.88;;;20.50;56.67
79589;BME280;69067;51.930;4.492;2023-05-10T10:39:09;101149.28;;;20.55;56.65
79589;BME280;69067;51.930;4.492;2023-05-10T10:41:38;101152.66;;;20.57;56.24
79589;BME280;69067;51.930;4.492;2023-05-10T10:47:20;101151.47;;;20.60;57.27
79589;BME280;69067;51.930;4.492;2023-05-10T10:50:04;101163.13;;;20.60;57.86
79589;BME280;69067;51.930;4.492;2023-05-10T10:52:31;101162.09;;;20.61;57.99
79589;BME280;69067;51.930;4.492;2023-05-10T10:55:13;101161.63;;;20.58;59.03
79589;BME280;69067;51.930;4.492;2023-05-10T11:03:03;101165.00;;;20.60;59.40
79589;BME280;69067;51.930;4.492;2023-05-10T11:05:42;101162.31;;;20.60;60.47
79589;BME280;69067;51.930;4.492;2023-05-10T11:08:16;101160.22;;;20.62;59.11
79589;BME280;69067;51.930;4.492;2023-05-10T11:15:58;101150.63;;;20.59;59.31
79589;BME280;69067;51.930;4.492;2023-05-10T11:18:29;101154.34;;;20.58;57.89
79589;BME280;69067;51.930;4.492;2023-05-10T11:21:00;101153.69;;;20.56;57.94
79589;BME280;69067;51.930;4.492;2023-05-10T11:26:13;101163.13;;;20.60;58.41
79589;BME280;69067;51.930;4.492;2023-05-10T11:28:48;101158.25;;;20.56;57.60
79589;BME280;69067;51.930;4.492;2023-05-10T11:31:15;101159.25;;;20.55;57.05
79589;BME280;69067;51.930;4.492;2023-05-10T11:33:46;101168.72;;;20.59;57.55
79589;BME280;69067;51.930;4.492;2023-05-10T11:36:18;101160.97;;;20.56;57.68
79589;BME280;69067;51.930;4.492;2023-05-10T11:38:47;101171.44;;;20.59;57.14
79589;BME280;69067;51.930;4.492;2023-05-10T11:41:16;101161.63;;;20.58;58.51
79589;BME280;69067;51.930;4.492;2023-05-10T11:43:46;101172.50;;;20.72;57.51
79589;BME280;69067;51.930;4.492;2023-05-10T11:46:14;101171.91;;;20.85;57.12
79589;BME280;69067;51.930;4.492;2023-05-10T11:48:42;101173.31;;;20.96;56.76
79589;BME280;69067;51.930;4.492;2023-05-10T11:51:10;101178.13;;;21.08;56.57
79589;BME280;69067;51.930;4.492;2023-05-10T11:53:36;101164.75;;;21.07;56.42
79589;BME280;69067;51.930;4.492;2023-05-10T11:56:08;101160.81;;;21.09;57.17
79589;BME280;69067;51.930;4.492;2023-05-10T11:58:36;101161.50;;;21.11;56.75
79589;BME280;69067;51.930;4.492;2023-05-10T12:01:06;101173.41;;;21.25;56.99
79589;BME280;69067;51.930;4.492;2023-05-10T12:03:33;101185.19;;;21.32;57.22
79589;BME280;69067;51.930;4.492;2023-05-10T12:06:00;101178.94;;;21.32;57.41
79589;BME280;69067;51.930;4.492;2023-05-10T12:08:28;101182.13;;;21.50;57.01
79589;BME280;69067;51.930;4.492;2023-05-10T12:11:07;101185.56;;;21.88;55.38
79589;BME280;69067;51.930;4.492;2023-05-10T12:13:41;101188.75;;;21.91;54.89
79589;BME280;69067;51.930;4.492;2023-05-10T12:16:13;101194.81;;;21.93;55.29
79589;BME280;69067;51.930;4.492;2023-05-10T12:18:44;101184.81;;;21.79;55.82
79589;BME280;69067;51.930;4.492;2023-05-10T12:21:12;101193.03;;;21.86;55.16
79589;BME280;69067;51.930;4.492;2023-05-10T12:23:38;101201.56;;;21.83;56.65
79589;BME280;69067;51.930;4.492;2023-05-10T12:26:06;101197.25;;;21.88;56.11
79589;BME280;69067;51.930;4.492;2023-05-10T12:28:32;101198.28;;;21.73;55.49
79589;BME280;69067;51.930;4.492;2023-05-10T12:31:02;101196.16;;;21.68;53.97
79589;BME280;69067;51.930;4.492;2023-05-10T12:33:36;101197.91;;;21.61;54.92
79589;BME280;69067;51.930;4.492;2023-05-10T12:36:12;101200.28;;;21.64;54.79
79589;BME280;69067;51.930;4.492;2023-05-10T12:38:41;101203.16;;;21.77;53.58
79589;BME280;69067;51.930;4.492;2023-05-10T12:41:17;101197.00;;;21.83;54.10
79589;BME280;69067;51.930;4.492;2023-05-10T12:43:44;101190.81;;;21.89;54.35
79589;BME280;69067;51.930;4.492;2023-05-10T12:46:15;101196.22;;;21.89;53.89
79589;BME280;69067;51.930;4.492;2023-05-10T12:48:43;101199.91;;;21.96;54.37
79589;BME280;69067;51.930;4.492;2023-05-10T12:51:10;101199.38;;;21.93;54.68
79589;BME280;69067;51.930;4.492;2023-05-10T12:53:41;101201.84;;;21.88;54.88
79589;BME280;69067;51.930;4.492;2023-05-10T12:56:07;101205.13;;;21.83;54.86
79589;BME280;69067;51.930;4.492;2023-05-10T12:58:34;101213.59;;;21.95;56.17
79589;BME280;69067;51.930;4.492;2023-05-10T13:00:59;101207.25;;;22.17;60.45
79589;BME280;69067;51.930;4.492;2023-05-10T13:03:25;101212.84;;;22.30;54.56
79589;BME280;69067;51.930;4.492;2023-05-10T13:05:51;101208.53;;;22.21;54.02
79589;BME280;69067;51.930;4.492;2023-05-10T13:08:17;101219.56;;;22.20;54.70
79589;BME280;69067;51.930;4.492;2023-05-10T13:10:42;101221.84;;;22.16;54.14
79589;BME280;69067;51.930;4.492;2023-05-10T13:13:08;101217.09;;;22.04;55.48
79589;BME280;69067;51.930;4.492;2023-05-10T13:15:35;101216.84;;;21.98;54.57
79589;BME280;69067;51.930;4.492;2023-05-10T13:18:00;101228.28;;;22.15;54.88
79589;BME280;69067;51.930;4.492;2023-05-10T13:20:26;101221.41;;;22.13;55.07
79589;BME280;69067;51.930;4.492;2023-05-10T13:22:52;101228.56;;;22.20;54.38
79589;BME280;69067;51.930;4.492;2023-05-10T13:25:19;101223.91;;;22.14;54.63
79589;BME280;69067;51.930;4.492;2023-05-10T13:27:45;101231.56;;;22.25;58.04
79589;BME280;69067;51.930;4.492;2023-05-10T13:30:11;101230.56;;;22.12;54.80
79589;BME280;69067;51.930;4.492;2023-05-10T13:32:37;101218.47;;;22.14;55.28